Bayview, South Carolina
Current Conditions -  °F | °C
As of 6:53 AM on Thursday 29 Jan 2015 (Local Time) from KCUB Reporting Station
Clear Clear  
Wind Chill: 28°   Ceiling: Unl
Heat Index: 28°   Visibility: 10mi
Dew Point: 25°   Wind: 0mph
Humidity: 88%   Direction: NA
Pressure: 30.36"   Gusts: NA
Location:  34.0268°N, 81.0007°W
Report Text: KCUB 291153Z AUTO 00000KT 10SM CLR M02/M04 A3036 RMK AO2 SLP282 T10221039 11006 21022 50007
Loading
Personal Weather Stations






























Interactive Weather Map New forecast layout! Learn more

10-Day Weather Forecast

Advertisements
Track Severe Weather on mobile